sensor_id;sensor_type;location;lat;lon;timestamp;pressure;altitude;pressure_sealevel;temperature;humidity
68376;BME280;55318;52.068;5.188;2022-09-09T00:00:11;100802.0;;;17.02;92.95
68376;BME280;55318;52.068;5.188;2022-09-09T00:01:54;100802.0;;;17.03;92.54
68376;BME280;55318;52.068;5.188;2022-09-09T00:03:40;100802.0;;;17.03;92.53
68376;BME280;55318;52.068;5.188;2022-09-09T00:05:26;100801.0;;;17.0;92.65
68376;BME280;55318;52.068;5.188;2022-09-09T00:07:12;100800.0;;;17.09;92.38
68376;BME280;55318;52.068;5.188;2022-09-09T00:10:40;100800.0;;;17.0;92.59
68376;BME280;55318;52.068;5.188;2022-09-09T00:12:24;100795.0;;;16.95;92.91
68376;BME280;55318;52.068;5.188;2022-09-09T00:14:18;100798.0;;;16.91;93.01
68376;BME280;55318;52.068;5.188;2022-09-09T00:16:02;100794.0;;;16.89;92.89
68376;BME280;55318;52.068;5.188;2022-09-09T00:17:45;100797.0;;;16.82;93.36
68376;BME280;55318;52.068;5.188;2022-09-09T00:21:16;100793.0;;;16.86;93.0
68376;BME280;55318;52.068;5.188;2022-09-09T00:22:58;100793.0;;;16.84;92.84
68376;BME280;55318;52.068;5.188;2022-09-09T00:24:43;100796.0;;;16.77;93.23
68376;BME280;55318;52.068;5.188;2022-09-09T00:26:27;100798.0;;;16.7;93.5
68376;BME280;55318;52.068;5.188;2022-09-09T00:28:13;100791.0;;;16.7;93.26
68376;BME280;55318;52.068;5.188;2022-09-09T00:31:37;100789.0;;;16.65;93.38
68376;BME280;55318;52.068;5.188;2022-09-09T00:33:17;100786.0;;;16.59;93.64
68376;BME280;55318;52.068;5.188;2022-09-09T00:36:38;100782.0;;;16.55;93.7
68376;BME280;55318;52.068;5.188;2022-09-09T00:39:59;100784.0;;;16.56;93.39
68376;BME280;55318;52.068;5.188;2022-09-09T00:41:50;100787.0;;;16.52;93.53
68376;BME280;55318;52.068;5.188;2022-09-09T00:43:39;100782.0;;;16.46;93.64
68376;BME280;55318;52.068;5.188;2022-09-09T00:45:29;100787.0;;;16.48;93.64
68376;BME280;55318;52.068;5.188;2022-09-09T00:47:36;100786.0;;;16.5;93.59
68376;BME280;55318;52.068;5.188;2022-09-09T00:49:39;100788.0;;;16.45;93.51
68376;BME280;55318;52.068;5.188;2022-09-09T00:51:28;100791.0;;;16.41;93.6
68376;BME280;55318;52.068;5.188;2022-09-09T00:53:21;100795.0;;;16.4;93.53
68376;BME280;55318;52.068;5.188;2022-09-09T00:55:10;100794.0;;;16.48;93.57
68376;BME280;55318;52.068;5.188;2022-09-09T00:58:43;100793.0;;;16.4;93.56
68376;BME280;55318;52.068;5.188;2022-09-09T01:00:29;100791.0;;;16.38;93.69
68376;BME280;55318;52.068;5.188;2022-09-09T01:02:14;100794.0;;;16.36;93.6
68376;BME280;55318;52.068;5.188;2022-09-09T01:03:56;100793.0;;;16.34;93.83
68376;BME280;55318;52.068;5.188;2022-09-09T01:05:35;100791.0;;;16.34;93.66
68376;BME280;55318;52.068;5.188;2022-09-09T01:09:10;100787.0;;;16.36;93.34
68376;BME280;55318;52.068;5.188;2022-09-09T01:10:59;100782.0;;;16.36;93.42
68376;BME280;55318;52.068;5.188;2022-09-09T01:12:39;100782.0;;;16.36;93.12
68376;BME280;55318;52.068;5.188;2022-09-09T01:14:29;100784.0;;;16.36;92.9
68376;BME280;55318;52.068;5.188;2022-09-09T01:16:10;100784.0;;;16.32;93.14
68376;BME280;55318;52.068;5.188;2022-09-09T01:19:45;100778.0;;;16.29;93.37
68376;BME280;55318;52.068;5.188;2022-09-09T01:21:32;100780.0;;;16.32;93.05
68376;BME280;55318;52.068;5.188;2022-09-09T01:23:25;100776.0;;;16.23;93.36
68376;BME280;55318;52.068;5.188;2022-09-09T01:26:04;100769.0;;;16.15;93.79
68376;BME280;55318;52.068;5.188;2022-09-09T01:27:54;100771.0;;;16.15;93.8
68376;BME280;55318;52.068;5.188;2022-09-09T01:29:32;100776.0;;;16.07;94.24
68376;BME280;55318;52.068;5.188;2022-09-09T01:31:11;100776.0;;;16.11;94.06
68376;BME280;55318;52.068;5.188;2022-09-09T01:32:54;100774.0;;;16.06;93.91
68376;BME280;55318;52.068;5.188;2022-09-09T01:36:20;100777.0;;;16.09;94.11
68376;BME280;55318;52.068;5.188;2022-09-09T01:38:01;100774.0;;;16.05;93.91
68376;BME280;55318;52.068;5.188;2022-09-09T01:39:39;100778.0;;;16.04;94.07
68376;BME280;55318;52.068;5.188;2022-09-09T01:41:18;100777.0;;;16.02;94.11
68376;BME280;55318;52.068;5.188;2022-09-09T01:44:33;100776.0;;;16.02;94.1
68376;BME280;55318;52.068;5.188;2022-09-09T01:46:11;100775.0;;;16.04;93.74
68376;BME280;55318;52.068;5.188;2022-09-09T01:47:49;100770.0;;;15.96;94.13
68376;BME280;55318;52.068;5.188;2022-09-09T01:51:03;100771.0;;;16.0;93.87
68376;BME280;55318;52.068;5.188;2022-09-09T01:52:39;100760.0;;;15.99;93.53
68376;BME280;55318;52.068;5.188;2022-09-09T01:54:16;100759.0;;;15.98;93.92
68376;BME280;55318;52.068;5.188;2022-09-09T01:56:00;100762.0;;;16.02;93.83
68376;BME280;55318;52.068;5.188;2022-09-09T01:59:42;100761.0;;;15.97;93.92
68376;BME280;55318;52.068;5.188;2022-09-09T02:01:28;100756.0;;;16.02;93.53
68376;BME280;55318;52.068;5.188;2022-09-09T02:03:20;100755.0;;;15.95;93.75
68376;BME280;55318;52.068;5.188;2022-09-09T02:05:10;100756.0;;;15.95;93.66
68376;BME280;55318;52.068;5.188;2022-09-09T02:06:55;100753.0;;;15.93;93.74
68376;BME280;55318;52.068;5.188;2022-09-09T02:08:37;100749.0;;;15.9;94.0
68376;BME280;55318;52.068;5.188;2022-09-09T02:12:09;100744.0;;;15.87;94.16
68376;BME280;55318;52.068;5.188;2022-09-09T02:13:51;100742.0;;;15.87;94.03
68376;BME280;55318;52.068;5.188;2022-09-09T02:15:32;100740.0;;;15.84;94.15
68376;BME280;55318;52.068;5.188;2022-09-09T02:17:17;100739.0;;;15.8;94.37
68376;BME280;55318;52.068;5.188;2022-09-09T02:19:01;100742.0;;;15.81;94.6
68376;BME280;55318;52.068;5.188;2022-09-09T02:22:22;100741.0;;;15.82;94.62
68376;BME280;55318;52.068;5.188;2022-09-09T02:24:02;100747.0;;;15.79;94.73
68376;BME280;55318;52.068;5.188;2022-09-09T02:25:41;100745.0;;;15.79;94.75
68376;BME280;55318;52.068;5.188;2022-09-09T02:27:20;100742.0;;;15.88;93.91
68376;BME280;55318;52.068;5.188;2022-09-09T02:30:40;100743.0;;;15.81;94.26
68376;BME280;55318;52.068;5.188;2022-09-09T02:32:21;100743.0;;;15.85;93.87
68376;BME280;55318;52.068;5.188;2022-09-09T02:34:00;100742.0;;;15.83;94.04
68376;BME280;55318;52.068;5.188;2022-09-09T02:35:39;100744.0;;;15.79;94.09
68376;BME280;55318;52.068;5.188;2022-09-09T02:38:58;100744.0;;;15.76;94.33
68376;BME280;55318;52.068;5.188;2022-09-09T02:40:35;100741.0;;;15.83;93.97
68376;BME280;55318;52.068;5.188;2022-09-09T02:42:11;100741.0;;;15.78;94.2
68376;BME280;55318;52.068;5.188;2022-09-09T02:45:27;100741.0;;;15.76;94.4
68376;BME280;55318;52.068;5.188;2022-09-09T02:47:19;100740.0;;;15.78;93.88
68376;BME280;55318;52.068;5.188;2022-09-09T02:49:03;100738.0;;;15.72;94.12
68376;BME280;55318;52.068;5.188;2022-09-09T02:50:52;100734.0;;;15.77;93.76
68376;BME280;55318;52.068;5.188;2022-09-09T02:52:38;100731.0;;;15.7;94.15
68376;BME280;55318;52.068;5.188;2022-09-09T02:54:24;100730.0;;;15.75;93.83
68376;BME280;55318;52.068;5.188;2022-09-09T02:59:26;100731.0;;;15.73;93.7
68376;BME280;55318;52.068;5.188;2022-09-09T03:01:03;100733.0;;;15.74;93.89
68376;BME280;55318;52.068;5.188;2022-09-09T03:04:15;100730.0;;;15.75;93.82
68376;BME280;55318;52.068;5.188;2022-09-09T03:05:52;100733.0;;;15.68;94.12
68376;BME280;55318;52.068;5.188;2022-09-09T03:07:28;100730.0;;;15.66;94.32
68376;BME280;55318;52.068;5.188;2022-09-09T03:09:04;100736.0;;;15.67;94.22
68376;BME280;55318;52.068;5.188;2022-09-09T03:12:16;100736.0;;;15.6;94.56
68376;BME280;55318;52.068;5.188;2022-09-09T03:13:53;100730.0;;;15.65;94.21
68376;BME280;55318;52.068;5.188;2022-09-09T03:15:31;100733.0;;;15.63;94.02
68376;BME280;55318;52.068;5.188;2022-09-09T03:18:46;100732.0;;;15.62;94.3
68376;BME280;55318;52.068;5.188;2022-09-09T03:20:23;100733.0;;;15.57;94.58
68376;BME280;55318;52.068;5.188;2022-09-09T03:22:00;100727.0;;;15.58;94.25
68376;BME280;55318;52.068;5.188;2022-09-09T03:23:36;100730.0;;;15.56;94.2
68376;BME280;55318;52.068;5.188;2022-09-09T03:26:50;100736.0;;;15.56;94.3
68376;BME280;55318;52.068;5.188;2022-09-09T03:28:31;100735.0;;;15.51;94.72
68376;BME280;55318;52.068;5.188;2022-09-09T03:30:08;100731.0;;;15.47;94.9
68376;BME280;55318;52.068;5.188;2022-09-09T03:33:20;100734.0;;;15.45;95.19
68376;BME280;55318;52.068;5.188;2022-09-09T03:34:57;100730.0;;;15.5;94.81
68376;BME280;55318;52.068;5.188;2022-09-09T03:36:33;100733.0;;;15.43;95.06
68376;BME280;55318;52.068;5.188;2022-09-09T03:39:46;100727.0;;;15.43;95.02
68376;BME280;55318;52.068;5.188;2022-09-09T03:41:24;100724.0;;;15.4;95.24
68376;BME280;55318;52.068;5.188;2022-09-09T03:43:01;100722.0;;;15.46;94.86
68376;BME280;55318;52.068;5.188;2022-09-09T03:44:37;100721.0;;;15.43;94.97
68376;BME280;55318;52.068;5.188;2022-09-09T03:47:50;100727.0;;;15.5;94.6
68376;BME280;55318;52.068;5.188;2022-09-09T03:49:28;100730.0;;;15.45;95.01
68376;BME280;55318;52.068;5.188;2022-09-09T03:51:05;100735.0;;;15.36;95.26
68376;BME280;55318;52.068;5.188;2022-09-09T03:54:18;100728.0;;;15.34;95.26
68376;BME280;55318;52.068;5.188;2022-09-09T03:55:56;100726.0;;;15.25;95.81
68376;BME280;55318;52.068;5.188;2022-09-09T03:57:35;100721.0;;;15.26;95.82
68376;BME280;55318;52.068;5.188;2022-09-09T03:59:12;100723.0;;;15.29;95.75
68376;BME280;55318;52.068;5.188;2022-09-09T04:02:30;100721.0;;;15.25;96.09
68376;BME280;55318;52.068;5.188;2022-09-09T04:04:08;100723.0;;;15.27;95.87
68376;BME280;55318;52.068;5.188;2022-09-09T04:05:48;100724.0;;;15.38;95.49
68376;BME280;55318;52.068;5.188;2022-09-09T04:09:03;100719.0;;;15.28;95.58
68376;BME280;55318;52.068;5.188;2022-09-09T04:10:39;100715.0;;;15.31;95.65
68376;BME280;55318;52.068;5.188;2022-09-09T04:12:16;100715.0;;;15.33;95.54
68376;BME280;55318;52.068;5.188;2022-09-09T04:13:52;100712.0;;;15.38;95.23
68376;BME280;55318;52.068;5.188;2022-09-09T04:17:06;100710.0;;;15.36;95.32
68376;BME280;55318;52.068;5.188;2022-09-09T04:18:42;100714.0;;;15.44;94.97
68376;BME280;55318;52.068;5.188;2022-09-09T04:20:19;100713.0;;;15.3;95.89
68376;BME280;55318;52.068;5.188;2022-09-09T04:23:31;100710.0;;;15.44;95.41
68376;BME280;55318;52.068;5.188;2022-09-09T04:25:08;100706.0;;;15.51;94.77
68376;BME280;55318;52.068;5.188;2022-09-09T04:26:45;100703.0;;;15.39;95.22
68376;BME280;55318;52.068;5.188;2022-09-09T04:30:01;100705.0;;;15.41;95.24
68376;BME280;55318;52.068;5.188;2022-09-09T04:31:42;100707.0;;;15.37;95.5
68376;BME280;55318;52.068;5.188;2022-09-09T04:33:18;100699.0;;;15.44;95.06
68376;BME280;55318;52.068;5.188;2022-09-09T04:34:54;100693.0;;;15.42;95.19
68376;BME280;55318;52.068;5.188;2022-09-09T04:38:09;100692.0;;;15.41;95.15
68376;BME280;55318;52.068;5.188;2022-09-09T04:39:45;100696.0;;;15.38;95.37
68376;BME280;55318;52.068;5.188;2022-09-09T04:41:21;100692.0;;;15.36;95.59
68376;BME280;55318;52.068;5.188;2022-09-09T04:44:35;100695.0;;;15.38;95.63
68376;BME280;55318;52.068;5.188;2022-09-09T04:46:11;100694.0;;;15.36;95.52
68376;BME280;55318;52.068;5.188;2022-09-09T04:47:47;100695.0;;;15.36;95.82
68376;BME280;55318;52.068;5.188;2022-09-09T04:49:23;100694.0;;;15.33;96.03
68376;BME280;55318;52.068;5.188;2022-09-09T04:52:37;100697.0;;;15.39;95.75
68376;BME280;55318;52.068;5.188;2022-09-09T04:54:14;100695.0;;;15.39;95.77
68376;BME280;55318;52.068;5.188;2022-09-09T04:55:50;100693.0;;;15.39;95.7
68376;BME280;55318;52.068;5.188;2022-09-09T04:59:03;100691.0;;;15.39;95.79
68376;BME280;55318;52.068;5.188;2022-09-09T05:00:38;100692.0;;;15.44;95.57
68376;BME280;55318;52.068;5.188;2022-09-09T05:02:14;100691.0;;;15.45;95.45
68376;BME280;55318;52.068;5.188;2022-09-09T05:05:28;100689.0;;;15.42;95.6
68376;BME280;55318;52.068;5.188;2022-09-09T05:07:04;100690.0;;;15.49;95.12
68376;BME280;55318;52.068;5.188;2022-09-09T05:08:41;100687.0;;;15.55;94.87
68376;BME280;55318;52.068;5.188;2022-09-09T05:10:20;100681.0;;;15.49;95.13
68376;BME280;55318;52.068;5.188;2022-09-09T05:13:34;100682.0;;;15.51;95.13
68376;BME280;55318;52.068;5.188;2022-09-09T05:15:10;100680.0;;;15.43;95.54
68376;BME280;55318;52.068;5.188;2022-09-09T05:16:47;100683.0;;;15.4;95.92
68376;BME280;55318;52.068;5.188;2022-09-09T05:20:00;100681.0;;;15.41;96.04
68376;BME280;55318;52.068;5.188;2022-09-09T05:21:36;100680.0;;;15.4;96.1
68376;BME280;55318;52.068;5.188;2022-09-09T05:23:13;100685.0;;;15.4;96.23
68376;BME280;55318;52.068;5.188;2022-09-09T05:26:26;100685.0;;;15.41;96.3
68376;BME280;55318;52.068;5.188;2022-09-09T05:28:02;100684.0;;;15.4;96.4
68376;BME280;55318;52.068;5.188;2022-09-09T05:29:38;100685.0;;;15.41;96.22
68376;BME280;55318;52.068;5.188;2022-09-09T05:31:17;100687.0;;;15.42;96.24
68376;BME280;55318;52.068;5.188;2022-09-09T05:34:32;100682.0;;;15.42;96.32
68376;BME280;55318;52.068;5.188;2022-09-09T05:36:10;100673.0;;;15.48;96.02
68376;BME280;55318;52.068;5.188;2022-09-09T05:37:47;100670.0;;;15.48;96.24
68376;BME280;55318;52.068;5.188;2022-09-09T05:41:00;100669.0;;;15.52;96.25
68376;BME280;55318;52.068;5.188;2022-09-09T05:42:37;100669.0;;;15.54;96.2
68376;BME280;55318;52.068;5.188;2022-09-09T05:44:13;100673.0;;;15.54;96.32
68376;BME280;55318;52.068;5.188;2022-09-09T05:47:36;100675.0;;;15.58;96.39
68376;BME280;55318;52.068;5.188;2022-09-09T05:49:12;100680.0;;;15.68;95.98
68376;BME280;55318;52.068;5.188;2022-09-09T05:50:52;100684.0;;;15.69;96.09
68376;BME280;55318;52.068;5.188;2022-09-09T05:52:29;100689.0;;;15.75;95.8
68376;BME280;55318;52.068;5.188;2022-09-09T05:55:42;100685.0;;;15.72;96.12
68376;BME280;55318;52.068;5.188;2022-09-09T05:57:19;100685.0;;;15.81;96.04
68376;BME280;55318;52.068;5.188;2022-09-09T05:58:56;100689.0;;;15.83;95.97
68376;BME280;55318;52.068;5.188;2022-09-09T06:00:32;100691.0;;;15.96;95.69
68376;BME280;55318;52.068;5.188;2022-09-09T06:03:47;100693.0;;;16.07;95.28
68376;BME280;55318;52.068;5.188;2022-09-09T06:05:24;100696.0;;;16.16;95.38
68376;BME280;55318;52.068;5.188;2022-09-09T06:07:01;100695.0;;;16.18;94.99
68376;BME280;55318;52.068;5.188;2022-09-09T06:10:16;100694.0;;;16.18;95.0
68376;BME280;55318;52.068;5.188;2022-09-09T06:11:54;100693.0;;;16.23;94.66
68376;BME280;55318;52.068;5.188;2022-09-09T06:13:31;100684.0;;;16.25;94.77
68376;BME280;55318;52.068;5.188;2022-09-09T06:16:46;100688.0;;;16.21;95.01
68376;BME280;55318;52.068;5.188;2022-09-09T06:18:22;100688.0;;;16.23;95.27
68376;BME280;55318;52.068;5.188;2022-09-09T06:19:59;100686.0;;;16.36;95.29
68376;BME280;55318;52.068;5.188;2022-09-09T06:21:36;100686.0;;;16.43;95.06
68376;BME280;55318;52.068;5.188;2022-09-09T06:24:49;100686.0;;;16.5;94.8
68376;BME280;55318;52.068;5.188;2022-09-09T06:26:27;100683.0;;;16.5;94.83
68376;BME280;55318;52.068;5.188;2022-09-09T06:28:03;100682.0;;;16.57;94.69
68376;BME280;55318;52.068;5.188;2022-09-09T06:31:18;100689.0;;;16.62;94.13
68376;BME280;55318;52.068;5.188;2022-09-09T06:32:56;100683.0;;;16.54;94.78
68376;BME280;55318;52.068;5.188;2022-09-09T06:34:32;100686.0;;;16.71;94.86
68376;BME280;55318;52.068;5.188;2022-09-09T06:36:11;100677.0;;;16.75;94.06
68376;BME280;55318;52.068;5.188;2022-09-09T06:39:25;100677.0;;;16.79;93.48
68376;BME280;55318;52.068;5.188;2022-09-09T06:42:39;100671.0;;;16.86;92.9
68376;BME280;55318;52.068;5.188;2022-09-09T06:45:53;100670.0;;;16.95;92.84
68376;BME280;55318;52.068;5.188;2022-09-09T06:47:30;100673.0;;;16.89;92.53
68376;BME280;55318;52.068;5.188;2022-09-09T06:49:07;100675.0;;;17.04;92.86
68376;BME280;55318;52.068;5.188;2022-09-09T06:50:43;100672.0;;;17.2;92.42
68376;BME280;55318;52.068;5.188;2022-09-09T06:53:58;100674.0;;;17.34;91.68
68376;BME280;55318;52.068;5.188;2022-09-09T06:55:35;100676.0;;;17.61;92.04
68376;BME280;55318;52.068;5.188;2022-09-09T06:57:11;100678.0;;;17.97;90.74
68376;BME280;55318;52.068;5.188;2022-09-09T07:00:26;100675.0;;;18.22;87.73
68376;BME280;55318;52.068;5.188;2022-09-09T07:02:03;100680.0;;;18.43;87.34
68376;BME280;55318;52.068;5.188;2022-09-09T07:03:39;100680.0;;;18.61;86.0
68376;BME280;55318;52.068;5.188;2022-09-09T07:06:53;100676.0;;;18.61;86.08
68376;BME280;55318;52.068;5.188;2022-09-09T07:08:28;100678.0;;;18.68;84.42
68376;BME280;55318;52.068;5.188;2022-09-09T07:10:05;100674.0;;;18.95;83.66
68376;BME280;55318;52.068;5.188;2022-09-09T07:11:43;100680.0;;;18.86;83.61
68376;BME280;55318;52.068;5.188;2022-09-09T07:15:01;100669.0;;;19.07;83.09
68376;BME280;55318;52.068;5.188;2022-09-09T07:16:37;100674.0;;;19.22;82.79
68376;BME280;55318;52.068;5.188;2022-09-09T07:18:13;100669.0;;;19.43;82.12
68376;BME280;55318;52.068;5.188;2022-09-09T07:21:28;100673.0;;;19.63;81.19
68376;BME280;55318;52.068;5.188;2022-09-09T07:23:04;100667.0;;;19.52;81.06
68376;BME280;55318;52.068;5.188;2022-09-09T07:24:41;100672.0;;;19.86;81.19
68376;BME280;55318;52.068;5.188;2022-09-09T07:26:18;100672.0;;;19.48;79.09
68376;BME280;55318;52.068;5.188;2022-09-09T07:29:33;100674.0;;;19.59;79.02
68376;BME280;55318;52.068;5.188;2022-09-09T07:31:14;100674.0;;;19.45;80.69
68376;BME280;55318;52.068;5.188;2022-09-09T07:32:51;100670.0;;;19.38;80.73
68376;BME280;55318;52.068;5.188;2022-09-09T07:36:07;100667.0;;;19.52;80.42
68376;BME280;55318;52.068;5.188;2022-09-09T07:37:44;100664.0;;;19.41;80.64
68376;BME280;55318;52.068;5.188;2022-09-09T07:39:20;100682.0;;;19.28;80.78
68376;BME280;55318;52.068;5.188;2022-09-09T07:41:03;100680.0;;;19.22;81.08
68376;BME280;55318;52.068;5.188;2022-09-09T07:44:18;100681.0;;;19.21;81.44
68376;BME280;55318;52.068;5.188;2022-09-09T07:45:57;100681.0;;;19.13;80.5
68376;BME280;55318;52.068;5.188;2022-09-09T07:47:34;100680.0;;;19.0;81.09
68376;BME280;55318;52.068;5.188;2022-09-09T07:50:47;100694.0;;;18.75;83.14
68376;BME280;55318;52.068;5.188;2022-09-09T07:52:23;100690.0;;;18.79;81.94
68376;BME280;55318;52.068;5.188;2022-09-09T07:54:01;100689.0;;;18.7;82.46
68376;BME280;55318;52.068;5.188;2022-09-09T07:55:38;100696.0;;;18.66;82.54
68376;BME280;55318;52.068;5.188;2022-09-09T07:58:53;100688.0;;;18.66;82.66
68376;BME280;55318;52.068;5.188;2022-09-09T08:00:30;100695.0;;;18.66;82.66
68376;BME280;55318;52.068;5.188;2022-09-09T08:02:06;100696.0;;;18.61;82.91
68376;BME280;55318;52.068;5.188;2022-09-09T08:05:28;100692.0;;;18.64;83.19
68376;BME280;55318;52.068;5.188;2022-09-09T08:07:04;100687.0;;;18.66;82.52
68376;BME280;55318;52.068;5.188;2022-09-09T08:08:41;100692.0;;;18.55;82.08
68376;BME280;55318;52.068;5.188;2022-09-09T08:10:18;100688.0;;;18.56;82.03
68376;BME280;55318;52.068;5.188;2022-09-09T08:13:34;100693.0;;;18.43;82.31
68376;BME280;55318;52.068;5.188;2022-09-09T08:15:11;100693.0;;;18.34;82.29
68376;BME280;55318;52.068;5.188;2022-09-09T08:16:48;100693.0;;;18.29;82.77
68376;BME280;55318;52.068;5.188;2022-09-09T08:20:06;100689.0;;;18.47;82.29
68376;BME280;55318;52.068;5.188;2022-09-09T08:21:43;100698.0;;;18.5;82.75
68376;BME280;55318;52.068;5.188;2022-09-09T08:23:21;100694.0;;;18.38;82.21
68376;BME280;55318;52.068;5.188;2022-09-09T08:24:58;100698.0;;;18.41;82.71
68376;BME280;55318;52.068;5.188;2022-09-09T08:28:12;100698.0;;;18.45;82.82
68376;BME280;55318;52.068;5.188;2022-09-09T08:29:49;100698.0;;;18.56;83.32
68376;BME280;55318;52.068;5.188;2022-09-09T08:31:27;100700.0;;;18.72;82.33
68376;BME280;55318;52.068;5.188;2022-09-09T08:34:41;100702.0;;;18.72;81.72
68376;BME280;55318;52.068;5.188;2022-09-09T08:36:20;100703.0;;;18.63;81.47
68376;BME280;55318;52.068;5.188;2022-09-09T08:37:58;100705.0;;;18.66;81.93
68376;BME280;55318;52.068;5.188;2022-09-09T08:39:34;100705.0;;;18.54;81.42
68376;BME280;55318;52.068;5.188;2022-09-09T08:43:43;100711.0;;;18.59;81.47
68376;BME280;55318;52.068;5.188;2022-09-09T08:47:15;100707.0;;;18.66;81.44
68376;BME280;55318;52.068;5.188;2022-09-09T08:49:02;100710.0;;;18.66;81.69
68376;BME280;55318;52.068;5.188;2022-09-09T08:50:44;100714.0;;;18.72;81.53
68376;BME280;55318;52.068;5.188;2022-09-09T08:52:23;100715.0;;;18.7;81.33
68376;BME280;55318;52.068;5.188;2022-09-09T08:55:44;100715.0;;;18.66;81.25
68376;BME280;55318;52.068;5.188;2022-09-09T08:57:25;100710.0;;;18.75;81.19
68376;BME280;55318;52.068;5.188;2022-09-09T08:59:04;100714.0;;;18.63;80.77
68376;BME280;55318;52.068;5.188;2022-09-09T09:00:52;100714.0;;;18.64;80.92
68376;BME280;55318;52.068;5.188;2022-09-09T09:02:53;100709.0;;;18.55;81.38
68376;BME280;55318;52.068;5.188;2022-09-09T09:04:45;100713.0;;;18.66;80.84
68376;BME280;55318;52.068;5.188;2022-09-09T09:08:26;100714.0;;;18.82;81.38
68376;BME280;55318;52.068;5.188;2022-09-09T09:10:14;100716.0;;;18.93;81.22
68376;BME280;55318;52.068;5.188;2022-09-09T09:12:01;100718.0;;;18.87;80.87
68376;BME280;55318;52.068;5.188;2022-09-09T09:13:47;100718.0;;;18.73;80.84
68376;BME280;55318;52.068;5.188;2022-09-09T09:15:33;100720.0;;;18.77;81.31
68376;BME280;55318;52.068;5.188;2022-09-09T09:17:14;100720.0;;;18.75;81.16
68376;BME280;55318;52.068;5.188;2022-09-09T09:20:39;100712.0;;;18.68;80.84
68376;BME280;55318;52.068;5.188;2022-09-09T09:22:21;100717.0;;;18.7;81.44
68376;BME280;55318;52.068;5.188;2022-09-09T09:24:00;100719.0;;;18.75;81.06
68376;BME280;55318;52.068;5.188;2022-09-09T09:25:39;100723.0;;;18.84;80.22
68376;BME280;55318;52.068;5.188;2022-09-09T09:29:11;100721.0;;;18.68;80.42
68376;BME280;55318;52.068;5.188;2022-09-09T09:30:52;100722.0;;;18.63;80.86
68376;BME280;55318;52.068;5.188;2022-09-09T09:32:33;100730.0;;;18.54;81.11
68376;BME280;55318;52.068;5.188;2022-09-09T09:34:12;100732.0;;;18.68;81.55
68376;BME280;55318;52.068;5.188;2022-09-09T09:37:28;100733.0;;;18.45;83.89
68376;BME280;55318;52.068;5.188;2022-09-09T09:39:06;100731.0;;;18.39;85.45
68376;BME280;55318;52.068;5.188;2022-09-09T09:40:51;100736.0;;;18.41;86.84
68376;BME280;55318;52.068;5.188;2022-09-09T09:42:30;100740.0;;;18.31;88.0
68376;BME280;55318;52.068;5.188;2022-09-09T09:46:00;100740.0;;;18.28;88.87
68376;BME280;55318;52.068;5.188;2022-09-09T09:47:41;100734.0;;;18.2;89.35
68376;BME280;55318;52.068;5.188;2022-09-09T09:49:17;100732.0;;;18.18;89.41
68376;BME280;55318;52.068;5.188;2022-09-09T09:50:56;100730.0;;;18.13;90.24
68376;BME280;55318;52.068;5.188;2022-09-09T09:54:18;100727.0;;;18.29;89.86
68376;BME280;55318;52.068;5.188;2022-09-09T09:56:01;100726.0;;;18.21;89.23
68376;BME280;55318;52.068;5.188;2022-09-09T09:57:39;100728.0;;;18.28;88.94
68376;BME280;55318;52.068;5.188;2022-09-09T09:59:32;100725.0;;;18.23;89.32
68376;BME280;55318;52.068;5.188;2022-09-09T10:01:20;100722.0;;;18.27;88.92
68376;BME280;55318;52.068;5.188;2022-09-09T10:04:36;100719.0;;;18.14;88.47
68376;BME280;55318;52.068;5.188;2022-09-09T10:06:12;100726.0;;;18.09;88.51
68376;BME280;55318;52.068;5.188;2022-09-09T10:08:00;100720.0;;;18.09;88.7
68376;BME280;55318;52.068;5.188;2022-09-09T10:09:37;100720.0;;;18.11;88.38
68376;BME280;55318;52.068;5.188;2022-09-09T10:14:57;100732.0;;;18.18;87.51
68376;BME280;55318;52.068;5.188;2022-09-09T10:16:47;100739.0;;;18.13;89.01
68376;BME280;55318;52.068;5.188;2022-09-09T10:18:40;100732.0;;;18.11;89.85
68376;BME280;55318;52.068;5.188;2022-09-09T10:20:32;100733.0;;;18.11;90.61
68376;BME280;55318;52.068;5.188;2022-09-09T10:22:21;100733.0;;;18.16;91.34
68376;BME280;55318;52.068;5.188;2022-09-09T10:26:25;100730.0;;;18.25;91.27
68376;BME280;55318;52.068;5.188;2022-09-09T10:28:23;100730.0;;;18.36;90.61
68376;BME280;55318;52.068;5.188;2022-09-09T10:31:04;100730.0;;;18.3;91.5
68376;BME280;55318;52.068;5.188;2022-09-09T10:32:57;100730.0;;;18.25;91.41
68376;BME280;55318;52.068;5.188;2022-09-09T10:34:53;100731.0;;;18.16;91.8
68376;BME280;55318;52.068;5.188;2022-09-09T10:38:17;100725.0;;;18.05;90.42
68376;BME280;55318;52.068;5.188;2022-09-09T10:40:02;100734.0;;;18.09;91.39
68376;BME280;55318;52.068;5.188;2022-09-09T10:41:57;100727.0;;;18.18;91.2
68376;BME280;55318;52.068;5.188;2022-09-09T10:43:49;100725.0;;;18.29;91.19
68376;BME280;55318;52.068;5.188;2022-09-09T10:45:44;100722.0;;;18.2;91.23
68376;BME280;55318;52.068;5.188;2022-09-09T10:47:35;100723.0;;;18.18;91.23
68376;BME280;55318;52.068;5.188;2022-09-09T10:49:37;100721.0;;;18.36;92.04
68376;BME280;55318;52.068;5.188;2022-09-09T10:51:23;100716.0;;;18.36;89.25
68376;BME280;55318;52.068;5.188;2022-09-09T10:54:57;100714.0;;;18.45;89.01
68376;BME280;55318;52.068;5.188;2022-09-09T10:56:37;100717.0;;;18.68;89.62
68376;BME280;55318;52.068;5.188;2022-09-09T10:58:19;100713.0;;;18.63;87.65
68376;BME280;55318;52.068;5.188;2022-09-09T11:00:03;100713.0;;;18.66;87.52
68376;BME280;55318;52.068;5.188;2022-09-09T11:03:26;100712.0;;;18.71;87.6
68376;BME280;55318;52.068;5.188;2022-09-09T11:05:06;100714.0;;;18.66;87.5
68376;BME280;55318;52.068;5.188;2022-09-09T11:06:54;100718.0;;;18.77;87.09
68376;BME280;55318;52.068;5.188;2022-09-09T11:08:33;100712.0;;;19.02;88.06
68376;BME280;55318;52.068;5.188;2022-09-09T11:10:19;100715.0;;;18.89;85.11
68376;BME280;55318;52.068;5.188;2022-09-09T11:13:43;100707.0;;;18.75;85.98
68376;BME280;55318;52.068;5.188;2022-09-09T11:15:31;100710.0;;;18.84;86.33
68376;BME280;55318;52.068;5.188;2022-09-09T11:17:19;100719.0;;;18.89;84.66